sensor_id;sensor_type;location;lat;lon;timestamp;P1;durP1;ratioP1;P2;durP2;ratioP2
19507;SDS011;40157;42.566;27.526;2023-04-03T00:00:00;11.17;;;5.40;;
19507;SDS011;40157;42.566;27.526;2023-04-03T00:02:00;13.27;;;5.20;;
19507;SDS011;40157;42.566;27.526;2023-04-03T00:04:01;9.93;;;4.97;;
19507;SDS011;40157;42.566;27.526;2023-04-03T00:06:01;8.83;;;4.80;;
19507;SDS011;40157;42.566;27.526;2023-04-03T00:08:03;14.27;;;4.97;;
19507;SDS011;40157;42.566;27.526;2023-04-03T00:10:04;9.37;;;4.60;;
19507;SDS011;40157;42.566;27.526;2023-04-03T00:12:05;10.67;;;5.07;;
19507;SDS011;40157;42.566;27.526;2023-04-03T00:14:06;9.67;;;4.90;;
19507;SDS011;40157;42.566;27.526;2023-04-03T00:16:07;12.43;;;5.50;;
19507;SDS011;40157;42.566;27.526;2023-04-03T00:18:09;11.97;;;7.40;;
19507;SDS011;40157;42.566;27.526;2023-04-03T00:20:09;13.50;;;7.27;;
19507;SDS011;40157;42.566;27.526;2023-04-03T00:22:10;35.83;;;16.57;;
19507;SDS011;40157;42.566;27.526;2023-04-03T00:24:10;22.00;;;9.87;;
19507;SDS011;40157;42.566;27.526;2023-04-03T00:26:11;13.00;;;7.50;;
19507;SDS011;40157;42.566;27.526;2023-04-03T00:28:12;9.33;;;5.07;;
19507;SDS011;40157;42.566;27.526;2023-04-03T00:30:13;11.83;;;4.87;;
19507;SDS011;40157;42.566;27.526;2023-04-03T00:32:15;8.97;;;4.07;;
19507;SDS011;40157;42.566;27.526;2023-04-03T00:34:16;10.37;;;4.90;;
19507;SDS011;40157;42.566;27.526;2023-04-03T00:36:16;11.47;;;6.23;;
19507;SDS011;40157;42.566;27.526;2023-04-03T00:38:17;14.33;;;6.13;;
19507;SDS011;40157;42.566;27.526;2023-04-03T00:40:18;19.97;;;10.83;;
19507;SDS011;40157;42.566;27.526;2023-04-03T00:42:20;19.93;;;11.60;;
19507;SDS011;40157;42.566;27.526;2023-04-03T00:44:21;14.83;;;9.50;;
19507;SDS011;40157;42.566;27.526;2023-04-03T00:46:43;17.30;;;7.40;;
19507;SDS011;40157;42.566;27.526;2023-04-03T00:48:45;10.57;;;6.10;;
19507;SDS011;40157;42.566;27.526;2023-04-03T00:50:46;9.20;;;5.80;;
19507;SDS011;40157;42.566;27.526;2023-04-03T00:52:47;10.27;;;5.50;;
19507;SDS011;40157;42.566;27.526;2023-04-03T00:54:49;9.97;;;5.53;;
19507;SDS011;40157;42.566;27.526;2023-04-03T00:56:52;11.50;;;6.33;;
19507;SDS011;40157;42.566;27.526;2023-04-03T00:59:06;11.30;;;6.10;;
19507;SDS011;40157;42.566;27.526;2023-04-03T01:01:11;11.37;;;7.70;;
19507;SDS011;40157;42.566;27.526;2023-04-03T01:03:15;15.37;;;8.50;;
19507;SDS011;40157;42.566;27.526;2023-04-03T01:05:16;12.00;;;6.93;;
19507;SDS011;40157;42.566;27.526;2023-04-03T01:07:20;13.33;;;7.73;;
19507;SDS011;40157;42.566;27.526;2023-04-03T01:09:23;12.17;;;7.97;;
19507;SDS011;40157;42.566;27.526;2023-04-03T01:11:24;14.20;;;8.50;;
19507;SDS011;40157;42.566;27.526;2023-04-03T01:13:25;16.10;;;8.90;;
19507;SDS011;40157;42.566;27.526;2023-04-03T01:15:28;15.03;;;7.87;;
19507;SDS011;40157;42.566;27.526;2023-04-03T01:19:39;15.33;;;6.70;;
19507;SDS011;40157;42.566;27.526;2023-04-03T01:22:03;25.87;;;10.87;;
19507;SDS011;40157;42.566;27.526;2023-04-03T01:26:26;25.30;;;14.30;;
19507;SDS011;40157;42.566;27.526;2023-04-03T01:28:29;22.43;;;12.50;;
19507;SDS011;40157;42.566;27.526;2023-04-03T01:30:34;17.30;;;10.57;;
19507;SDS011;40157;42.566;27.526;2023-04-03T01:32:41;19.47;;;9.57;;
19507;SDS011;40157;42.566;27.526;2023-04-03T01:34:42;16.33;;;8.83;;
19507;SDS011;40157;42.566;27.526;2023-04-03T01:36:42;13.37;;;6.70;;
19507;SDS011;40157;42.566;27.526;2023-04-03T01:38:43;12.40;;;5.63;;
19507;SDS011;40157;42.566;27.526;2023-04-03T01:40:43;9.57;;;4.53;;
19507;SDS011;40157;42.566;27.526;2023-04-03T01:42:43;5.67;;;3.27;;
19507;SDS011;40157;42.566;27.526;2023-04-03T01:44:44;7.80;;;3.93;;
19507;SDS011;40157;42.566;27.526;2023-04-03T01:46:45;6.67;;;3.60;;
19507;SDS011;40157;42.566;27.526;2023-04-03T01:48:46;6.77;;;4.17;;
19507;SDS011;40157;42.566;27.526;2023-04-03T01:50:47;8.40;;;4.80;;
19507;SDS011;40157;42.566;27.526;2023-04-03T01:52:47;10.53;;;5.00;;
19507;SDS011;40157;42.566;27.526;2023-04-03T01:54:48;8.27;;;4.73;;
19507;SDS011;40157;42.566;27.526;2023-04-03T01:56:48;9.40;;;4.07;;
19507;SDS011;40157;42.566;27.526;2023-04-03T01:58:49;6.33;;;3.77;;
19507;SDS011;40157;42.566;27.526;2023-04-03T02:00:49;8.00;;;4.10;;
19507;SDS011;40157;42.566;27.526;2023-04-03T02:02:51;7.43;;;4.43;;
19507;SDS011;40157;42.566;27.526;2023-04-03T02:04:51;7.60;;;3.83;;
19507;SDS011;40157;42.566;27.526;2023-04-03T02:06:51;8.03;;;4.40;;
19507;SDS011;40157;42.566;27.526;2023-04-03T02:08:52;6.60;;;3.67;;
19507;SDS011;40157;42.566;27.526;2023-04-03T02:10:52;6.33;;;3.60;;
19507;SDS011;40157;42.566;27.526;2023-04-03T02:12:53;5.60;;;3.27;;
19507;SDS011;40157;42.566;27.526;2023-04-03T02:14:53;5.83;;;3.60;;
19507;SDS011;40157;42.566;27.526;2023-04-03T02:16:54;4.97;;;3.10;;
19507;SDS011;40157;42.566;27.526;2023-04-03T02:18:54;6.23;;;3.20;;
19507;SDS011;40157;42.566;27.526;2023-04-03T02:20:55;6.80;;;2.90;;
19507;SDS011;40157;42.566;27.526;2023-04-03T02:22:55;4.43;;;3.00;;
19507;SDS011;40157;42.566;27.526;2023-04-03T02:24:56;8.73;;;3.47;;
19507;SDS011;40157;42.566;27.526;2023-04-03T02:26:56;6.40;;;3.67;;
19507;SDS011;40157;42.566;27.526;2023-04-03T02:28:57;7.57;;;4.57;;
19507;SDS011;40157;42.566;27.526;2023-04-03T02:30:57;6.97;;;4.17;;
19507;SDS011;40157;42.566;27.526;2023-04-03T02:32:58;8.57;;;4.90;;
19507;SDS011;40157;42.566;27.526;2023-04-03T02:34:58;11.10;;;5.57;;
19507;SDS011;40157;42.566;27.526;2023-04-03T02:36:59;13.67;;;6.80;;
19507;SDS011;40157;42.566;27.526;2023-04-03T02:38:59;10.83;;;6.83;;
19507;SDS011;40157;42.566;27.526;2023-04-03T02:41:04;9.50;;;4.67;;
19507;SDS011;40157;42.566;27.526;2023-04-03T02:43:06;7.43;;;4.50;;
19507;SDS011;40157;42.566;27.526;2023-04-03T02:45:07;7.53;;;4.20;;
19507;SDS011;40157;42.566;27.526;2023-04-03T02:47:07;7.27;;;4.63;;
19507;SDS011;40157;42.566;27.526;2023-04-03T02:49:08;11.60;;;4.73;;
19507;SDS011;40157;42.566;27.526;2023-04-03T02:51:08;12.13;;;6.60;;
19507;SDS011;40157;42.566;27.526;2023-04-03T02:53:08;13.03;;;7.27;;
19507;SDS011;40157;42.566;27.526;2023-04-03T02:55:12;13.20;;;7.40;;
19507;SDS011;40157;42.566;27.526;2023-04-03T02:57:15;11.60;;;6.43;;
19507;SDS011;40157;42.566;27.526;2023-04-03T02:59:16;10.20;;;5.70;;
19507;SDS011;40157;42.566;27.526;2023-04-03T03:01:16;11.10;;;6.00;;
19507;SDS011;40157;42.566;27.526;2023-04-03T03:03:17;12.17;;;6.80;;
19507;SDS011;40157;42.566;27.526;2023-04-03T03:05:17;15.27;;;7.33;;
19507;SDS011;40157;42.566;27.526;2023-04-03T03:07:18;12.70;;;7.17;;
19507;SDS011;40157;42.566;27.526;2023-04-03T03:09:18;14.30;;;6.57;;
19507;SDS011;40157;42.566;27.526;2023-04-03T03:11:19;11.20;;;6.07;;
19507;SDS011;40157;42.566;27.526;2023-04-03T03:13:19;11.97;;;6.90;;
19507;SDS011;40157;42.566;27.526;2023-04-03T03:15:20;10.97;;;5.83;;
19507;SDS011;40157;42.566;27.526;2023-04-03T03:17:20;9.30;;;5.80;;
19507;SDS011;40157;42.566;27.526;2023-04-03T03:19:21;11.30;;;5.87;;
19507;SDS011;40157;42.566;27.526;2023-04-03T03:21:21;10.43;;;5.47;;
19507;SDS011;40157;42.566;27.526;2023-04-03T03:23:23;9.83;;;5.97;;
19507;SDS011;40157;42.566;27.526;2023-04-03T03:25:24;13.77;;;6.50;;
19507;SDS011;40157;42.566;27.526;2023-04-03T03:27:25;32.47;;;13.53;;
19507;SDS011;40157;42.566;27.526;2023-04-03T03:29:25;25.10;;;11.67;;
19507;SDS011;40157;42.566;27.526;2023-04-03T03:31:26;28.50;;;12.43;;
19507;SDS011;40157;42.566;27.526;2023-04-03T03:33:26;27.60;;;12.47;;
19507;SDS011;40157;42.566;27.526;2023-04-03T03:35:27;25.03;;;10.90;;
19507;SDS011;40157;42.566;27.526;2023-04-03T03:37:27;18.80;;;9.50;;
19507;SDS011;40157;42.566;27.526;2023-04-03T03:39:28;16.60;;;7.10;;
19507;SDS011;40157;42.566;27.526;2023-04-03T03:41:28;14.83;;;8.07;;
19507;SDS011;40157;42.566;27.526;2023-04-03T03:43:29;17.57;;;8.33;;
19507;SDS011;40157;42.566;27.526;2023-04-03T03:45:30;18.10;;;9.33;;
19507;SDS011;40157;42.566;27.526;2023-04-03T03:47:31;12.27;;;7.83;;
19507;SDS011;40157;42.566;27.526;2023-04-03T03:49:31;14.57;;;7.73;;
19507;SDS011;40157;42.566;27.526;2023-04-03T03:51:32;16.67;;;6.67;;
19507;SDS011;40157;42.566;27.526;2023-04-03T03:53:32;15.27;;;7.57;;
19507;SDS011;40157;42.566;27.526;2023-04-03T03:55:33;13.07;;;6.97;;
19507;SDS011;40157;42.566;27.526;2023-04-03T03:57:33;17.67;;;6.40;;
19507;SDS011;40157;42.566;27.526;2023-04-03T03:59:33;10.17;;;6.30;;
19507;SDS011;40157;42.566;27.526;2023-04-03T04:01:34;12.43;;;6.53;;
19507;SDS011;40157;42.566;27.526;2023-04-03T04:03:34;10.23;;;6.10;;
19507;SDS011;40157;42.566;27.526;2023-04-03T04:05:35;12.30;;;6.63;;
19507;SDS011;40157;42.566;27.526;2023-04-03T04:07:35;10.03;;;6.00;;
19507;SDS011;40157;42.566;27.526;2023-04-03T04:09:36;11.27;;;5.97;;
19507;SDS011;40157;42.566;27.526;2023-04-03T04:11:36;11.63;;;5.87;;
19507;SDS011;40157;42.566;27.526;2023-04-03T04:13:37;18.70;;;6.60;;
19507;SDS011;40157;42.566;27.526;2023-04-03T04:15:37;13.20;;;6.87;;
19507;SDS011;40157;42.566;27.526;2023-04-03T04:17:38;9.47;;;6.63;;
19507;SDS011;40157;42.566;27.526;2023-04-03T04:19:39;11.90;;;8.07;;
19507;SDS011;40157;42.566;27.526;2023-04-03T04:21:39;12.87;;;8.50;;
19507;SDS011;40157;42.566;27.526;2023-04-03T04:23:41;16.30;;;8.23;;
19507;SDS011;40157;42.566;27.526;2023-04-03T04:25:43;21.03;;;10.53;;
19507;SDS011;40157;42.566;27.526;2023-04-03T04:27:47;26.77;;;12.73;;
19507;SDS011;40157;42.566;27.526;2023-04-03T04:29:48;18.50;;;11.03;;
19507;SDS011;40157;42.566;27.526;2023-04-03T04:31:48;19.70;;;11.07;;
19507;SDS011;40157;42.566;27.526;2023-04-03T04:33:49;19.47;;;12.87;;
19507;SDS011;40157;42.566;27.526;2023-04-03T04:35:49;21.93;;;14.10;;
19507;SDS011;40157;42.566;27.526;2023-04-03T04:37:50;19.93;;;13.17;;
19507;SDS011;40157;42.566;27.526;2023-04-03T04:39:50;24.67;;;15.00;;
19507;SDS011;40157;42.566;27.526;2023-04-03T04:41:51;22.93;;;12.50;;
19507;SDS011;40157;42.566;27.526;2023-04-03T04:43:52;16.47;;;9.97;;
19507;SDS011;40157;42.566;27.526;2023-04-03T04:46:05;17.47;;;11.03;;
19507;SDS011;40157;42.566;27.526;2023-04-03T04:48:07;24.53;;;11.60;;
19507;SDS011;40157;42.566;27.526;2023-04-03T04:50:08;17.07;;;9.63;;
19507;SDS011;40157;42.566;27.526;2023-04-03T04:52:09;20.43;;;8.80;;
19507;SDS011;40157;42.566;27.526;2023-04-03T04:54:09;17.73;;;11.57;;
19507;SDS011;40157;42.566;27.526;2023-04-03T04:56:10;23.60;;;14.27;;
19507;SDS011;40157;42.566;27.526;2023-04-03T04:58:10;28.30;;;15.47;;
19507;SDS011;40157;42.566;27.526;2023-04-03T05:00:11;23.53;;;15.43;;
19507;SDS011;40157;42.566;27.526;2023-04-03T05:02:12;24.43;;;14.87;;
19507;SDS011;40157;42.566;27.526;2023-04-03T05:04:12;18.33;;;11.10;;
19507;SDS011;40157;42.566;27.526;2023-04-03T05:06:13;13.87;;;9.23;;
19507;SDS011;40157;42.566;27.526;2023-04-03T05:08:14;15.70;;;8.90;;
19507;SDS011;40157;42.566;27.526;2023-04-03T05:10:14;14.17;;;8.30;;
19507;SDS011;40157;42.566;27.526;2023-04-03T05:12:14;10.83;;;6.97;;
19507;SDS011;40157;42.566;27.526;2023-04-03T05:14:16;10.53;;;5.70;;
19507;SDS011;40157;42.566;27.526;2023-04-03T05:16:16;10.10;;;5.33;;
19507;SDS011;40157;42.566;27.526;2023-04-03T05:18:17;8.13;;;5.10;;
19507;SDS011;40157;42.566;27.526;2023-04-03T05:20:17;7.73;;;4.03;;
19507;SDS011;40157;42.566;27.526;2023-04-03T05:22:18;5.50;;;3.43;;
19507;SDS011;40157;42.566;27.526;2023-04-03T05:24:18;7.87;;;4.80;;
19507;SDS011;40157;42.566;27.526;2023-04-03T05:26:19;14.20;;;6.90;;
19507;SDS011;40157;42.566;27.526;2023-04-03T05:28:20;17.43;;;9.80;;
19507;SDS011;40157;42.566;27.526;2023-04-03T05:30:21;17.37;;;9.77;;
19507;SDS011;40157;42.566;27.526;2023-04-03T05:32:22;15.33;;;9.70;;
19507;SDS011;40157;42.566;27.526;2023-04-03T05:34:23;13.67;;;8.37;;
19507;SDS011;40157;42.566;27.526;2023-04-03T05:36:24;10.10;;;6.60;;
19507;SDS011;40157;42.566;27.526;2023-04-03T05:38:25;15.40;;;6.37;;
19507;SDS011;40157;42.566;27.526;2023-04-03T05:40:25;9.63;;;5.60;;
19507;SDS011;40157;42.566;27.526;2023-04-03T05:42:26;10.07;;;5.27;;
19507;SDS011;40157;42.566;27.526;2023-04-03T05:44:26;7.67;;;5.10;;
19507;SDS011;40157;42.566;27.526;2023-04-03T05:46:27;7.03;;;4.67;;
19507;SDS011;40157;42.566;27.526;2023-04-03T05:48:27;6.13;;;3.83;;
19507;SDS011;40157;42.566;27.526;2023-04-03T05:50:28;6.63;;;3.73;;
19507;SDS011;40157;42.566;27.526;2023-04-03T05:52:29;5.50;;;3.23;;
19507;SDS011;40157;42.566;27.526;2023-04-03T05:54:31;5.10;;;3.23;;
19507;SDS011;40157;42.566;27.526;2023-04-03T05:56:32;7.00;;;3.50;;
19507;SDS011;40157;42.566;27.526;2023-04-03T05:58:32;6.20;;;3.60;;
19507;SDS011;40157;42.566;27.526;2023-04-03T06:00:33;8.47;;;4.10;;
19507;SDS011;40157;42.566;27.526;2023-04-03T06:02:33;6.20;;;4.17;;
19507;SDS011;40157;42.566;27.526;2023-04-03T06:04:34;8.10;;;4.40;;
19507;SDS011;40157;42.566;27.526;2023-04-03T06:08:46;6.20;;;4.27;;
19507;SDS011;40157;42.566;27.526;2023-04-03T06:10:47;7.03;;;4.27;;
19507;SDS011;40157;42.566;27.526;2023-04-03T06:12:47;6.37;;;4.53;;
19507;SDS011;40157;42.566;27.526;2023-04-03T06:14:48;7.87;;;4.93;;
19507;SDS011;40157;42.566;27.526;2023-04-03T06:16:48;7.63;;;4.23;;
19507;SDS011;40157;42.566;27.526;2023-04-03T06:18:49;7.43;;;4.30;;
19507;SDS011;40157;42.566;27.526;2023-04-03T06:20:50;7.83;;;3.77;;
19507;SDS011;40157;42.566;27.526;2023-04-03T06:22:50;6.40;;;3.97;;
19507;SDS011;40157;42.566;27.526;2023-04-03T06:24:51;5.37;;;3.77;;
19507;SDS011;40157;42.566;27.526;2023-04-03T06:26:52;7.77;;;4.00;;
19507;SDS011;40157;42.566;27.526;2023-04-03T06:28:52;11.87;;;6.97;;
19507;SDS011;40157;42.566;27.526;2023-04-03T06:30:53;21.47;;;10.17;;
19507;SDS011;40157;42.566;27.526;2023-04-03T06:32:53;21.43;;;11.63;;
19507;SDS011;40157;42.566;27.526;2023-04-03T06:34:54;24.67;;;11.23;;
19507;SDS011;40157;42.566;27.526;2023-04-03T06:36:55;19.60;;;10.07;;
19507;SDS011;40157;42.566;27.526;2023-04-03T06:38:55;14.90;;;8.00;;
19507;SDS011;40157;42.566;27.526;2023-04-03T06:40:56;11.67;;;6.60;;
19507;SDS011;40157;42.566;27.526;2023-04-03T06:42:56;12.03;;;5.73;;
19507;SDS011;40157;42.566;27.526;2023-04-03T06:44:57;12.97;;;6.73;;
19507;SDS011;40157;42.566;27.526;2023-04-03T06:46:58;10.63;;;6.57;;
19507;SDS011;40157;42.566;27.526;2023-04-03T06:48:58;15.07;;;6.33;;
19507;SDS011;40157;42.566;27.526;2023-04-03T06:50:58;10.10;;;5.97;;
19507;SDS011;40157;42.566;27.526;2023-04-03T06:52:59;9.20;;;5.57;;
19507;SDS011;40157;42.566;27.526;2023-04-03T06:55:00;12.43;;;5.70;;
19507;SDS011;40157;42.566;27.526;2023-04-03T06:57:01;12.47;;;6.03;;
19507;SDS011;40157;42.566;27.526;2023-04-03T06:59:02;11.00;;;6.83;;
19507;SDS011;40157;42.566;27.526;2023-04-03T07:01:02;14.43;;;7.13;;
19507;SDS011;40157;42.566;27.526;2023-04-03T07:03:03;10.47;;;6.47;;
19507;SDS011;40157;42.566;27.526;2023-04-03T07:05:03;10.03;;;6.33;;
19507;SDS011;40157;42.566;27.526;2023-04-03T07:07:06;5.03;;;2.60;;
19507;SDS011;40157;42.566;27.526;2023-04-03T07:09:07;3.83;;;1.07;;
19507;SDS011;40157;42.566;27.526;2023-04-03T07:11:09;1.23;;;0.90;;
19507;SDS011;40157;42.566;27.526;2023-04-03T07:13:10;1.90;;;1.03;;
19507;SDS011;40157;42.566;27.526;2023-04-03T07:15:10;1.43;;;0.87;;
19507;SDS011;40157;42.566;27.526;2023-04-03T07:17:12;3.27;;;1.10;;
19507;SDS011;40157;42.566;27.526;2023-04-03T07:19:13;1.50;;;0.90;;
19507;SDS011;40157;42.566;27.526;2023-04-03T07:21:14;3.83;;;0.90;;
19507;SDS011;40157;42.566;27.526;2023-04-03T07:23:14;1.80;;;1.00;;
19507;SDS011;40157;42.566;27.526;2023-04-03T07:25:15;6.90;;;3.40;;
19507;SDS011;40157;42.566;27.526;2023-04-03T07:27:16;8.80;;;4.87;;
19507;SDS011;40157;42.566;27.526;2023-04-03T07:29:17;14.37;;;6.23;;
19507;SDS011;40157;42.566;27.526;2023-04-03T07:31:18;12.67;;;6.90;;
19507;SDS011;40157;42.566;27.526;2023-04-03T07:33:19;14.53;;;6.93;;
19507;SDS011;40157;42.566;27.526;2023-04-03T07:35:21;8.27;;;3.73;;
19507;SDS011;40157;42.566;27.526;2023-04-03T07:37:22;2.10;;;1.30;;
19507;SDS011;40157;42.566;27.526;2023-04-03T07:39:22;3.57;;;1.10;;
19507;SDS011;40157;42.566;27.526;2023-04-03T07:41:23;4.30;;;1.00;;
19507;SDS011;40157;42.566;27.526;2023-04-03T07:43:23;2.13;;;1.00;;
19507;SDS011;40157;42.566;27.526;2023-04-03T07:45:25;2.40;;;0.90;;
19507;SDS011;40157;42.566;27.526;2023-04-03T07:47:26;2.10;;;1.30;;
19507;SDS011;40157;42.566;27.526;2023-04-03T07:49:26;8.60;;;4.23;;
19507;SDS011;40157;42.566;27.526;2023-04-03T07:51:27;10.87;;;5.63;;
19507;SDS011;40157;42.566;27.526;2023-04-03T07:53:29;14.43;;;5.80;;
19507;SDS011;40157;42.566;27.526;2023-04-03T07:55:31;12.00;;;6.40;;
19507;SDS011;40157;42.566;27.526;2023-04-03T07:57:32;13.27;;;7.53;;
19507;SDS011;40157;42.566;27.526;2023-04-03T07:59:32;12.80;;;5.43;;
19507;SDS011;40157;42.566;27.526;2023-04-03T08:01:33;8.67;;;4.83;;
19507;SDS011;40157;42.566;27.526;2023-04-03T08:03:33;14.13;;;7.27;;
19507;SDS011;40157;42.566;27.526;2023-04-03T08:05:37;23.63;;;7.10;;
19507;SDS011;40157;42.566;27.526;2023-04-03T08:07:39;14.53;;;6.57;;
19507;SDS011;40157;42.566;27.526;2023-04-03T08:09:40;14.00;;;6.13;;
19507;SDS011;40157;42.566;27.526;2023-04-03T08:11:40;21.37;;;7.07;;
19507;SDS011;40157;42.566;27.526;2023-04-03T08:13:41;15.83;;;6.87;;
19507;SDS011;40157;42.566;27.526;2023-04-03T08:15:42;14.27;;;6.10;;
19507;SDS011;40157;42.566;27.526;2023-04-03T08:17:43;11.67;;;5.67;;
19507;SDS011;40157;42.566;27.526;2023-04-03T08:19:44;12.77;;;5.83;;
19507;SDS011;40157;42.566;27.526;2023-04-03T08:21:44;7.73;;;4.60;;
19507;SDS011;40157;42.566;27.526;2023-04-03T08:23:47;11.73;;;5.07;;
19507;SDS011;40157;42.566;27.526;2023-04-03T08:25:52;7.80;;;4.83;;
19507;SDS011;40157;42.566;27.526;2023-04-03T08:27:53;10.67;;;4.60;;
19507;SDS011;40157;42.566;27.526;2023-04-03T08:29:53;8.47;;;4.40;;
19507;SDS011;40157;42.566;27.526;2023-04-03T08:31:54;7.80;;;4.77;;
19507;SDS011;40157;42.566;27.526;2023-04-03T08:33:56;9.07;;;3.80;;
19507;SDS011;40157;42.566;27.526;2023-04-03T08:35:56;10.50;;;4.17;;
19507;SDS011;40157;42.566;27.526;2023-04-03T08:37:57;13.40;;;4.37;;
19507;SDS011;40157;42.566;27.526;2023-04-03T08:39:57;8.33;;;4.70;;
19507;SDS011;40157;42.566;27.526;2023-04-03T08:41:58;9.20;;;5.03;;
19507;SDS011;40157;42.566;27.526;2023-04-03T08:46:11;13.03;;;5.13;;
19507;SDS011;40157;42.566;27.526;2023-04-03T08:48:15;8.33;;;4.50;;
19507;SDS011;40157;42.566;27.526;2023-04-03T08:50:23;10.43;;;5.23;;
19507;SDS011;40157;42.566;27.526;2023-04-03T08:52:37;10.37;;;5.07;;
19507;SDS011;40157;42.566;27.526;2023-04-03T08:54:51;13.17;;;5.70;;
19507;SDS011;40157;42.566;27.526;2023-04-03T08:56:54;9.30;;;5.00;;
19507;SDS011;40157;42.566;27.526;2023-04-03T08:58:56;9.67;;;4.93;;
19507;SDS011;40157;42.566;27.526;2023-04-03T09:01:04;8.73;;;4.63;;
19507;SDS011;40157;42.566;27.526;2023-04-03T09:03:13;10.23;;;4.30;;
19507;SDS011;40157;42.566;27.526;2023-04-03T09:07:46;11.33;;;5.93;;
19507;SDS011;40157;42.566;27.526;2023-04-03T09:09:49;12.33;;;5.03;;
19507;SDS011;40157;42.566;27.526;2023-04-03T09:16:16;5.60;;;2.83;;
19507;SDS011;40157;42.566;27.526;2023-04-03T09:18:37;4.10;;;2.50;;
19507;SDS011;40157;42.566;27.526;2023-04-03T09:22:45;6.57;;;1.97;;
19507;SDS011;40157;42.566;27.526;2023-04-03T09:24:47;3.97;;;2.13;;
19507;SDS011;40157;42.566;27.526;2023-04-03T09:26:59;3.77;;;1.97;;
19507;SDS011;40157;42.566;27.526;2023-04-03T09:29:07;4.43;;;2.10;;
19507;SDS011;40157;42.566;27.526;2023-04-03T09:31:16;6.27;;;2.00;;
19507;SDS011;40157;42.566;27.526;2023-04-03T09:33:17;5.07;;;2.03;;
19507;SDS011;40157;42.566;27.526;2023-04-03T09:37:41;3.73;;;2.17;;
19507;SDS011;40157;42.566;27.526;2023-04-03T09:39:52;8.00;;;2.67;;
19507;SDS011;40157;42.566;27.526;2023-04-03T09:41:58;3.87;;;2.50;;
19507;SDS011;40157;42.566;27.526;2023-04-03T09:43:59;4.57;;;2.07;;
19507;SDS011;40157;42.566;27.526;2023-04-03T09:46:16;5.23;;;1.83;;
19507;SDS011;40157;42.566;27.526;2023-04-03T09:48:26;7.13;;;2.13;;
19507;SDS011;40157;42.566;27.526;2023-04-03T09:50:28;4.87;;;2.17;;
19507;SDS011;40157;42.566;27.526;2023-04-03T09:52:29;5.83;;;2.00;;
19507;SDS011;40157;42.566;27.526;2023-04-03T09:54:33;4.93;;;1.97;;
19507;SDS011;40157;42.566;27.526;2023-04-03T09:56:40;3.57;;;2.27;;
19507;SDS011;40157;42.566;27.526;2023-04-03T09:58:42;4.67;;;2.63;;
19507;SDS011;40157;42.566;27.526;2023-04-03T10:00:45;4.37;;;2.67;;
19507;SDS011;40157;42.566;27.526;2023-04-03T10:02:55;6.30;;;2.87;;
19507;SDS011;40157;42.566;27.526;2023-04-03T10:04:57;6.93;;;3.10;;
19507;SDS011;40157;42.566;27.526;2023-04-03T10:06:57;5.53;;;2.57;;
19507;SDS011;40157;42.566;27.526;2023-04-03T10:09:02;3.63;;;2.17;;
19507;SDS011;40157;42.566;27.526;2023-04-03T10:11:06;5.37;;;2.50;;
19507;SDS011;40157;42.566;27.526;2023-04-03T10:15:16;8.23;;;2.60;;
19507;SDS011;40157;42.566;27.526;2023-04-03T10:19:45;9.30;;;2.37;;
19507;SDS011;40157;42.566;27.526;2023-04-03T10:21:55;4.80;;;2.33;;
19507;SDS011;40157;42.566;27.526;2023-04-03T10:24:06;8.00;;;2.77;;
19507;SDS011;40157;42.566;27.526;2023-04-03T10:33:39;5.07;;;2.37;;
19507;SDS011;40157;42.566;27.526;2023-04-03T10:40:37;5.50;;;2.43;;
19507;SDS011;40157;42.566;27.526;2023-04-03T10:47:00;8.27;;;3.00;;
19507;SDS011;40157;42.566;27.526;2023-04-03T10:49:10;6.83;;;2.83;;
19507;SDS011;40157;42.566;27.526;2023-04-03T10:51:39;8.20;;;2.70;;
19507;SDS011;40157;42.566;27.526;2023-04-03T10:53:52;6.27;;;3.17;;
19507;SDS011;40157;42.566;27.526;2023-04-03T10:56:18;5.37;;;3.20;;
19507;SDS011;40157;42.566;27.526;2023-04-03T10:58:32;6.17;;;3.17;;
19507;SDS011;40157;42.566;27.526;2023-04-03T11:00:40;8.20;;;3.57;;
19507;SDS011;40157;42.566;27.526;2023-04-03T11:02:59;11.90;;;4.17;;
19507;SDS011;40157;42.566;27.526;2023-04-03T11:05:07;5.33;;;3.20;;
19507;SDS011;40157;42.566;27.526;2023-04-03T11:07:22;4.97;;;3.00;;
19507;SDS011;40157;42.566;27.526;2023-04-03T11:09:33;6.63;;;2.80;;
19507;SDS011;40157;42.566;27.526;2023-04-03T11:11:39;5.90;;;3.37;;
19507;SDS011;40157;42.566;27.526;2023-04-03T11:13:52;9.87;;;4.10;;
19507;SDS011;40157;42.566;27.526;2023-04-03T11:16:00;7.13;;;3.53;;
19507;SDS011;40157;42.566;27.526;2023-04-03T11:18:05;8.30;;;3.30;;
19507;SDS011;40157;42.566;27.526;2023-04-03T11:20:17;5.73;;;3.57;;
19507;SDS011;40157;42.566;27.526;2023-04-03T11:22:29;6.63;;;4.20;;
19507;SDS011;40157;42.566;27.526;2023-04-03T11:24:32;6.93;;;4.00;;
19507;SDS011;40157;42.566;27.526;2023-04-03T11:26:37;7.17;;;4.20;;
19507;SDS011;40157;42.566;27.526;2023-04-03T11:28:42;10.30;;;4.17;;
19507;SDS011;40157;42.566;27.526;2023-04-03T11:35:11;5.23;;;3.57;;
19507;SDS011;40157;42.566;27.526;2023-04-03T11:37:15;10.00;;;3.87;;
19507;SDS011;40157;42.566;27.526;2023-04-03T11:39:38;9.23;;;4.03;;
19507;SDS011;40157;42.566;27.526;2023-04-03T11:41:38;6.10;;;3.57;;
19507;SDS011;40157;42.566;27.526;2023-04-03T11:43:42;9.13;;;4.30;;
19507;SDS011;40157;42.566;27.526;2023-04-03T11:46:00;6.47;;;3.63;;
19507;SDS011;40157;42.566;27.526;2023-04-03T11:48:41;7.27;;;3.80;;
19507;SDS011;40157;42.566;27.526;2023-04-03T11:54:52;6.57;;;3.97;;
19507;SDS011;40157;42.566;27.526;2023-04-03T11:56:58;7.97;;;3.97;;
19507;SDS011;40157;42.566;27.526;2023-04-03T11:59:39;6.17;;;3.80;;
19507;SDS011;40157;42.566;27.526;2023-04-03T12:01:52;8.63;;;4.30;;
19507;SDS011;40157;42.566;27.526;2023-04-03T12:04:09;9.67;;;4.67;;
19507;SDS011;40157;42.566;27.526;2023-04-03T12:08:45;6.23;;;4.87;;
19507;SDS011;40157;42.566;27.526;2023-04-03T12:13:22;10.90;;;5.20;;
19507;SDS011;40157;42.566;27.526;2023-04-03T12:17:55;8.83;;;5.00;;
19507;SDS011;40157;42.566;27.526;2023-04-03T12:20:01;13.27;;;5.70;;
19507;SDS011;40157;42.566;27.526;2023-04-03T12:23:06;10.63;;;5.33;;
19507;SDS011;40157;42.566;27.526;2023-04-03T12:28:04;12.10;;;6.03;;
19507;SDS011;40157;42.566;27.526;2023-04-03T12:30:17;11.70;;;6.23;;
19507;SDS011;40157;42.566;27.526;2023-04-03T12:46:42;15.87;;;6.83;;
19507;SDS011;40157;42.566;27.526;2023-04-03T12:48:52;13.63;;;7.10;;
19507;SDS011;40157;42.566;27.526;2023-04-03T12:50:59;14.13;;;7.23;;
19507;SDS011;40157;42.566;27.526;2023-04-03T12:55:40;12.70;;;7.37;;
19507;SDS011;40157;42.566;27.526;2023-04-03T12:57:47;16.10;;;8.00;;
19507;SDS011;40157;42.566;27.526;2023-04-03T12:59:53;18.63;;;9.13;;
19507;SDS011;40157;42.566;27.526;2023-04-03T13:02:07;20.30;;;10.37;;
19507;SDS011;40157;42.566;27.526;2023-04-03T13:04:51;14.93;;;7.77;;
19507;SDS011;40157;42.566;27.526;2023-04-03T13:07:04;19.83;;;8.23;;
19507;SDS011;40157;42.566;27.526;2023-04-03T13:11:35;13.07;;;7.27;;
19507;SDS011;40157;42.566;27.526;2023-04-03T13:13:58;11.80;;;7.37;;
19507;SDS011;40157;42.566;27.526;2023-04-03T13:16:09;11.80;;;6.67;;
19507;SDS011;40157;42.566;27.526;2023-04-03T13:18:32;14.87;;;6.63;;
19507;SDS011;40157;42.566;27.526;2023-04-03T13:20:38;14.23;;;7.90;;
19507;SDS011;40157;42.566;27.526;2023-04-03T13:22:47;10.93;;;7.27;;
19507;SDS011;40157;42.566;27.526;2023-04-03T13:24:59;14.07;;;7.47;;